Time;durP1;ratioP1;P1;durP2;ratioP2;P2;SDS_P1;SDS_P2;PMS_P1;PMS_P2;Temp;Humidity;BMP_temperature;BMP_pressure;BME280_temperature;BME280_humidity;BME280_pressure;Samples;Min_cycle;Max_cycle;Signal;HPM_P1;HPM_P2
2023/05/11 12:02:00;;;;;;;15.80;3.20;;;;;;;;;;5094473;28;20374;-79
2023/05/11 12:04:38;;;;;;;13.35;3.33;;;;;;;;;;5094034;28;20074;-79
2023/05/11 12:07:07;;;;;;;7.15;3.05;;;;;;;;;;5094368;28;20035;-79
2023/05/11 12:09:35;;;;;;;14.57;4.38;;;;;;;;;;5094096;28;20020;-80
2023/05/11 12:12:02;;;;;;;17.98;3.95;;;;;;;;;;5106054;28;20066;-79
2023/05/11 12:14:29;;;;;;;14.13;4.50;;;;;;;;;;5094436;28;20100;-79
2023/05/11 12:17:12;;;;;;;14.90;3.55;;;;;;;;;;5093719;28;20029;-79
2023/05/11 12:19:38;;;;;;;13.63;2.97;;;;;;;;;;5093659;28;20020;-80
2023/05/11 12:22:04;;;;;;;21.30;3.03;;;;;;;;;;5093983;28;20085;-79
2023/05/11 12:24:30;;;;;;;10.55;3.10;;;;;;;;;;5093523;28;20021;-79
2023/05/11 12:26:57;;;;;;;14.82;3.28;;;;;;;;;;5093785;28;20063;-80
2023/05/11 12:29:23;;;;;;;8.45;2.90;;;;;;;;;;5093174;28;20021;-79
2023/05/11 12:31:49;;;;;;;12.13;2.85;;;;;;;;;;5094043;28;20118;-80
2023/05/11 12:34:16;;;;;;;8.13;3.03;;;;;;;;;;5093899;28;20028;-79
2023/05/11 12:36:45;;;;;;;11.68;2.80;;;;;;;;;;5093242;28;20069;-78
2023/05/11 12:39:17;;;;;;;7.57;2.95;;;;;;;;;;5074977;28;20418;-71
2023/05/11 12:41:44;;;;;;;10.93;2.30;;;;;;;;;;5068855;28;20044;-81
2023/05/11 12:44:10;;;;;;;8.07;2.50;;;;;;;;;;5077322;28;20095;-80
2023/05/11 12:46:36;;;;;;;10.38;2.75;;;;;;;;;;5077566;28;20025;-80
2023/05/11 12:49:02;;;;;;;11.13;3.17;;;;;;;;;;5073250;28;20028;-80
2023/05/11 12:51:44;;;;;;;8.15;2.67;;;;;;;;;;5062780;28;20025;-80
2023/05/11 12:54:10;;;;;;;9.45;2.65;;;;;;;;;;5069730;28;20028;-81
2023/05/11 12:56:46;;;;;;;11.27;2.47;;;;;;;;;;5053809;28;20079;-82
2023/05/11 12:59:24;;;;;;;6.88;2.38;;;;;;;;;;5061103;28;20025;-81
2023/05/11 13:01:50;;;;;;;10.40;2.50;;;;;;;;;;5072830;28;20057;-81
2023/05/11 13:04:17;;;;;;;7.07;2.40;;;;;;;;;;5073163;28;20377;-82
2023/05/11 13:06:46;;;;;;;14.15;2.33;;;;;;;;;;5071623;28;20040;-80
2023/05/11 13:09:21;;;;;;;7.22;2.28;;;;;;;;;;5073407;28;20365;-82
2023/05/11 13:11:47;;;;;;;7.38;2.30;;;;;;;;;;5056456;28;20056;-81
2023/05/11 13:14:16;;;;;;;5.60;2.60;;;;;;;;;;5039967;28;20029;-81
2023/05/11 13:16:51;;;;;;;6.30;2.63;;;;;;;;;;5039807;28;20135;-81
2023/05/11 13:19:27;;;;;;;11.35;2.42;;;;;;;;;;5039744;28;20026;-81
2023/05/11 13:21:56;;;;;;;11.38;3.20;;;;;;;;;;5038732;28;20059;-80
2023/05/11 13:24:23;;;;;;;8.73;2.72;;;;;;;;;;5039912;28;20041;-80
2023/05/11 13:26:50;;;;;;;5.38;2.90;;;;;;;;;;5039592;28;20030;-81
2023/05/11 13:29:16;;;;;;;7.80;3.20;;;;;;;;;;5038624;28;20478;-82
2023/05/11 13:31:43;;;;;;;6.97;3.13;;;;;;;;;;5039255;28;20036;-82
2023/05/11 13:34:09;;;;;;;8.05;3.08;;;;;;;;;;5038533;28;20418;-81
2023/05/11 13:36:35;;;;;;;15.57;3.13;;;;;;;;;;5050058;28;20021;-81
2023/05/11 14:09:26;;;;;;;5.03;2.75;;;;;;;;;;5135559;27;20362;-79
2023/05/11 14:11:52;;;;;;;8.75;2.55;;;;;;;;;;5135116;28;20027;-79
2023/05/11 14:14:19;;;;;;;8.13;3.72;;;;;;;;;;5135273;28;20427;-79
2023/05/11 14:16:45;;;;;;;7.07;2.75;;;;;;;;;;5116983;28;20034;-79
2023/05/11 14:19:11;;;;;;;4.90;2.50;;;;;;;;;;5116742;28;20069;-83
2023/05/11 14:21:37;;;;;;;4.70;2.58;;;;;;;;;;5134790;28;20024;-83
2023/05/11 14:24:03;;;;;;;7.97;2.80;;;;;;;;;;5135328;28;20070;-83
2023/05/11 14:26:29;;;;;;;5.55;2.65;;;;;;;;;;5116666;28;20421;-83
2023/05/11 14:28:55;;;;;;;4.28;2.33;;;;;;;;;;5135241;28;20309;-83
2023/05/11 14:31:21;;;;;;;10.18;3.55;;;;;;;;;;5135079;28;20321;-83
2023/05/11 14:33:47;;;;;;;6.47;3.53;;;;;;;;;;5135923;27;20023;-83
2023/05/11 14:36:19;;;;;;;5.40;2.80;;;;;;;;;;5116535;28;20332;-83
2023/05/11 14:38:46;;;;;;;7.15;2.70;;;;;;;;;;5134271;28;20452;-83
2023/05/11 14:41:12;;;;;;;5.25;3.38;;;;;;;;;;5116835;28;20031;-83
2023/05/11 14:43:57;;;;;;;4.25;2.58;;;;;;;;;;5117370;28;20350;-83
2023/05/11 14:46:23;;;;;;;4.88;2.53;;;;;;;;;;5134711;28;20392;-83
2023/05/11 14:48:49;;;;;;;5.68;2.42;;;;;;;;;;5134534;28;20423;-83
2023/05/11 14:51:15;;;;;;;9.07;2.38;;;;;;;;;;5134741;28;20109;-83
2023/05/11 14:53:41;;;;;;;4.28;2.17;;;;;;;;;;5116615;28;20023;-84
2023/05/11 14:56:07;;;;;;;7.35;2.40;;;;;;;;;;5133964;28;20115;-82
2023/05/11 14:58:33;;;;;;;8.48;3.70;;;;;;;;;;5134120;28;20026;-82
2023/05/11 15:00:59;;;;;;;9.13;2.58;;;;;;;;;;5134489;28;20026;-83
2023/05/11 15:03:26;;;;;;;7.15;2.20;;;;;;;;;;5114381;28;20065;-83
2023/05/11 15:05:52;;;;;;;4.88;1.92;;;;;;;;;;5113924;28;20031;-83
2023/05/11 15:08:18;;;;;;;6.05;2.80;;;;;;;;;;5112120;28;20341;-84
2023/05/11 15:10:44;;;;;;;7.95;3.17;;;;;;;;;;5100010;28;20028;-82
2023/05/11 15:13:10;;;;;;;6.47;3.33;;;;;;;;;;5100081;28;20077;-82
2023/05/11 15:15:36;;;;;;;5.82;2.90;;;;;;;;;;5081326;28;20122;-82
2023/05/11 15:18:02;;;;;;;5.95;3.10;;;;;;;;;;5100146;28;20362;-83
2023/05/11 15:20:28;;;;;;;4.68;2.08;;;;;;;;;;5099910;28;20355;-82
2023/05/11 15:22:55;;;;;;;4.55;2.47;;;;;;;;;;5099521;28;20051;-83
2023/05/11 15:25:21;;;;;;;4.38;2.58;;;;;;;;;;5100002;28;20028;-82
2023/05/11 15:27:47;;;;;;;4.07;2.47;;;;;;;;;;5099900;28;20024;-82
2023/05/11 15:30:13;;;;;;;4.70;2.30;;;;;;;;;;5099668;28;20067;-83
2023/05/11 15:32:40;;;;;;;8.27;3.33;;;;;;;;;;5100053;28;20024;-83
2023/05/11 15:35:06;;;;;;;6.45;2.40;;;;;;;;;;5100164;28;20035;-83
2023/05/11 15:37:32;;;;;;;2.88;2.00;;;;;;;;;;5099812;28;20039;-83
2023/05/11 15:39:58;;;;;;;6.43;2.55;;;;;;;;;;5099545;28;20031;-84
2023/05/11 15:42:25;;;;;;;6.20;3.15;;;;;;;;;;5099737;28;20024;-84
2023/05/11 15:44:52;;;;;;;5.25;3.08;;;;;;;;;;5099900;28;20024;-85
2023/05/11 15:47:18;;;;;;;6.68;2.95;;;;;;;;;;5099652;28;20028;-83
2023/05/11 15:49:44;;;;;;;5.43;3.17;;;;;;;;;;5081689;28;20051;-84
2023/05/11 15:52:10;;;;;;;4.18;2.63;;;;;;;;;;5080862;28;20066;-84
2023/05/11 15:54:36;;;;;;;5.95;2.50;;;;;;;;;;5112404;28;20111;-84
2023/05/11 15:57:02;;;;;;;7.30;3.42;;;;;;;;;;5101665;28;20389;-83
2023/05/11 15:59:31;;;;;;;9.57;4.45;;;;;;;;;;5101697;28;20031;-82
2023/05/11 16:01:57;;;;;;;4.90;3.28;;;;;;;;;;5102009;28;20442;-85
2023/05/11 16:04:23;;;;;;;9.63;3.28;;;;;;;;;;5080690;28;20032;-83
2023/05/11 16:06:49;;;;;;;9.50;3.38;;;;;;;;;;5080467;28;20129;-85
2023/05/11 16:09:15;;;;;;;11.70;4.88;;;;;;;;;;5097980;28;20084;-84
2023/05/11 16:11:42;;;;;;;14.68;6.43;;;;;;;;;;5081011;28;20020;-84
2023/05/11 16:14:08;;;;;;;14.02;7.15;;;;;;;;;;5081084;28;20020;-85
2023/05/11 16:16:35;;;;;;;16.10;9.05;;;;;;;;;;5099112;28;20016;-84
2023/05/11 16:19:01;;;;;;;15.55;7.65;;;;;;;;;;5080455;28;20067;-84
2023/05/11 16:21:27;;;;;;;11.75;6.07;;;;;;;;;;5079567;28;20067;-84
2023/05/11 16:23:53;;;;;;;15.55;7.03;;;;;;;;;;5099113;28;20024;-84
2023/05/11 16:26:19;;;;;;;16.10;8.30;;;;;;;;;;5114214;28;20039;-84
2023/05/11 16:28:45;;;;;;;15.60;6.72;;;;;;;;;;5098770;28;20119;-84
2023/05/11 16:31:11;;;;;;;16.90;8.07;;;;;;;;;;5098390;28;20055;-83
2023/05/11 16:33:38;;;;;;;17.38;8.02;;;;;;;;;;5080300;28;20012;-84
2023/05/11 16:36:04;;;;;;;9.57;5.75;;;;;;;;;;5098608;28;20087;-84
2023/05/11 16:38:31;;;;;;;10.63;5.90;;;;;;;;;;5098414;28;20024;-84
2023/05/11 16:40:57;;;;;;;14.75;7.22;;;;;;;;;;5098622;28;20055;-84
2023/05/11 16:46:27;;;;;;;19.15;8.48;;;;;;;;;;5098762;28;20019;-83
2023/05/11 16:48:53;;;;;;;16.77;8.48;;;;;;;;;;5097866;28;20028;-83
2023/05/11 16:51:19;;;;;;;14.88;7.35;;;;;;;;;;5079058;28;20504;-83
2023/05/11 16:53:45;;;;;;;19.88;6.78;;;;;;;;;;5080273;28;20110;-84
2023/05/11 16:56:12;;;;;;;14.05;6.65;;;;;;;;;;5097967;28;20107;-83
2023/05/11 16:58:38;;;;;;;11.40;6.65;;;;;;;;;;5079516;28;20385;-83
2023/05/11 17:01:05;;;;;;;12.30;6.72;;;;;;;;;;5098043;28;20026;-83
2023/05/11 17:03:34;;;;;;;14.07;5.78;;;;;;;;;;5098052;28;20024;-83
2023/05/11 17:06:00;;;;;;;8.35;5.18;;;;;;;;;;5079392;28;20066;-82
2023/05/11 17:08:27;;;;;;;7.18;4.50;;;;;;;;;;5097940;28;20058;-80
2023/05/11 17:10:54;;;;;;;10.85;6.40;;;;;;;;;;5097626;28;20110;-79
2023/05/11 17:13:20;;;;;;;15.55;7.20;;;;;;;;;;5097590;28;20337;-79
2023/05/11 17:15:46;;;;;;;14.18;7.65;;;;;;;;;;5097795;28;20024;-79
2023/05/11 17:18:12;;;;;;;12.73;7.97;;;;;;;;;;5097725;28;20023;-79
2023/05/11 17:20:39;;;;;;;10.82;6.60;;;;;;;;;;5079185;28;20035;-79
2023/05/11 17:23:05;;;;;;;15.57;9.95;;;;;;;;;;5097658;28;20043;-79
2023/05/11 17:25:31;;;;;;;32.95;19.08;;;;;;;;;;5097458;28;20024;-79
2023/05/11 17:27:57;;;;;;;19.30;13.27;;;;;;;;;;5097425;28;20103;-79
2023/05/11 17:30:23;;;;;;;10.57;6.50;;;;;;;;;;5097326;28;20477;-79
2023/05/11 17:32:50;;;;;;;9.98;6.30;;;;;;;;;;5097165;28;20035;-79
2023/05/11 17:35:16;;;;;;;8.32;5.22;;;;;;;;;;5097554;28;20044;-79
2023/05/11 17:37:42;;;;;;;11.02;6.65;;;;;;;;;;5078673;28;20426;-79
2023/05/11 17:40:08;;;;;;;12.77;6.07;;;;;;;;;;5077570;28;20035;-80
2023/05/11 17:42:35;;;;;;;9.55;5.60;;;;;;;;;;5097033;28;20024;-79
2023/05/11 17:45:01;;;;;;;6.85;4.15;;;;;;;;;;5079346;28;20024;-80
2023/05/11 17:47:27;;;;;;;8.60;5.40;;;;;;;;;;5079411;28;20027;-80
2023/05/11 17:49:53;;;;;;;13.65;6.68;;;;;;;;;;5097321;28;20398;-80
2023/05/11 17:52:19;;;;;;;18.38;11.05;;;;;;;;;;5097180;28;20028;-79
2023/05/11 17:54:46;;;;;;;44.30;29.33;;;;;;;;;;5097184;28;20060;-80
2023/05/11 17:57:12;;;;;;;33.47;15.23;;;;;;;;;;5096254;28;20016;-80
2023/05/11 17:59:38;;;;;;;40.17;13.35;;;;;;;;;;5078888;28;20047;-85
2023/05/11 18:02:04;;;;;;;31.30;10.52;;;;;;;;;;5096729;28;20107;-82
2023/05/11 18:04:30;;;;;;;48.72;16.73;;;;;;;;;;5096997;28;20298;-81
2023/05/11 18:06:56;;;;;;;37.28;12.13;;;;;;;;;;5096786;28;20059;-82
2023/05/11 18:09:22;;;;;;;35.97;13.65;;;;;;;;;;5055714;28;20508;-82
2023/05/11 18:11:49;;;;;;;27.10;11.50;;;;;;;;;;5056871;28;20112;-82
2023/05/11 18:14:15;;;;;;;40.05;11.55;;;;;;;;;;5056491;28;20074;-82
2023/05/11 18:16:41;;;;;;;28.50;9.23;;;;;;;;;;5056460;28;20037;-82
2023/05/11 18:19:07;;;;;;;37.35;11.85;;;;;;;;;;5056573;28;20032;-81
2023/05/11 18:21:33;;;;;;;42.65;11.77;;;;;;;;;;5056396;28;20017;-82
2023/05/11 18:23:59;;;;;;;33.80;10.77;;;;;;;;;;5056487;28;20040;-82
2023/05/11 18:26:25;;;;;;;34.00;9.48;;;;;;;;;;5056238;28;20434;-82
2023/05/11 18:28:53;;;;;;;19.48;7.07;;;;;;;;;;5056384;28;20029;-82
2023/05/11 18:31:20;;;;;;;15.98;6.25;;;;;;;;;;5056646;28;20029;-82
2023/05/11 18:33:46;;;;;;;20.58;6.72;;;;;;;;;;5054832;28;20025;-73
2023/05/11 18:36:12;;;;;;;18.30;5.97;;;;;;;;;;5056571;28;20488;-72
2023/05/11 18:38:38;;;;;;;15.75;5.93;;;;;;;;;;5056420;28;20036;-72
2023/05/11 18:41:04;;;;;;;17.77;6.18;;;;;;;;;;5056188;28;20048;-72
2023/05/11 18:43:31;;;;;;;15.35;5.68;;;;;;;;;;5055698;28;20296;-72
2023/05/11 18:45:57;;;;;;;14.52;5.68;;;;;;;;;;5059015;28;20017;-72
2023/05/11 18:48:23;;;;;;;15.85;6.25;;;;;;;;;;5060107;28;20025;-72
2023/05/11 18:50:56;;;;;;;14.70;5.55;;;;;;;;;;5059626;28;20037;-72
2023/05/11 18:53:22;;;;;;;28.67;7.07;;;;;;;;;;5060387;28;20032;-82
2023/05/11 18:55:48;;;;;;;23.27;6.70;;;;;;;;;;5058680;28;20028;-82
2023/05/11 18:58:18;;;;;;;22.58;7.78;;;;;;;;;;5059325;28;20053;-82
2023/05/11 19:00:45;;;;;;;13.35;4.65;;;;;;;;;;5058968;28;20031;-88
2023/05/11 19:03:12;;;;;;;15.38;6.22;;;;;;;;;;5059470;28;20025;-84
2023/05/11 19:05:38;;;;;;;8.27;4.95;;;;;;;;;;5059451;28;20025;-88
2023/05/11 19:08:04;;;;;;;8.68;4.50;;;;;;;;;;5067439;28;20113;-81
2023/05/11 19:10:30;;;;;;;9.25;5.25;;;;;;;;;;5079987;28;20024;-83
2023/05/11 19:12:56;;;;;;;6.15;4.00;;;;;;;;;;5078048;28;20081;-82
2023/05/11 19:15:22;;;;;;;8.52;5.32;;;;;;;;;;5080056;28;20025;-82
2023/05/11 19:17:48;;;;;;;5.68;3.45;;;;;;;;;;5079920;28;20032;-83
2023/05/11 19:20:17;;;;;;;8.70;3.30;;;;;;;;;;5079777;28;20027;-82
2023/05/11 19:22:43;;;;;;;4.97;3.00;;;;;;;;;;5079260;28;20016;-81
2023/05/11 19:25:09;;;;;;;4.93;3.42;;;;;;;;;;5079171;28;20048;-82
2023/05/11 19:27:35;;;;;;;4.82;3.53;;;;;;;;;;5078599;28;20032;-83
2023/05/11 19:30:03;;;;;;;4.57;3.30;;;;;;;;;;5079101;28;20032;-82
2023/05/11 19:32:29;;;;;;;6.10;3.40;;;;;;;;;;5078757;28;20059;-81
2023/05/11 19:34:55;;;;;;;5.70;2.80;;;;;;;;;;5079019;28;20136;-82
2023/05/11 19:37:21;;;;;;;5.60;3.53;;;;;;;;;;5078899;28;20075;-82
2023/05/11 19:39:48;;;;;;;8.50;3.30;;;;;;;;;;5079063;28;20024;-82
2023/05/11 19:42:14;;;;;;;8.25;3.60;;;;;;;;;;5079266;28;20430;-82
2023/05/11 19:44:42;;;;;;;5.80;3.25;;;;;;;;;;5079217;28;20028;-82
2023/05/11 19:47:09;;;;;;;6.30;3.20;;;;;;;;;;5079366;28;20051;-83
2023/05/11 19:49:35;;;;;;;5.85;3.15;;;;;;;;;;5079143;28;20101;-82
2023/05/11 19:52:01;;;;;;;4.95;3.70;;;;;;;;;;5078025;28;20024;-82
2023/05/11 19:54:28;;;;;;;6.05;3.53;;;;;;;;;;5078637;28;20031;-82
2023/05/11 19:56:54;;;;;;;5.90;3.60;;;;;;;;;;5077567;28;20163;-81
2023/05/11 19:59:21;;;;;;;6.57;3.42;;;;;;;;;;5078502;28;20021;-81
2023/05/11 20:01:47;;;;;;;7.43;3.92;;;;;;;;;;5078968;28;20027;-82
2023/05/11 20:04:13;;;;;;;6.78;4.28;;;;;;;;;;5078712;28;20146;-81
2023/05/11 20:06:39;;;;;;;8.60;4.22;;;;;;;;;;5078843;28;20060;-82
2023/05/11 20:09:06;;;;;;;9.18;4.45;;;;;;;;;;5077639;28;20052;-83
2023/05/11 20:11:32;;;;;;;5.75;4.00;;;;;;;;;;5077747;28;20040;-85
2023/05/11 20:13:59;;;;;;;8.90;3.92;;;;;;;;;;5077234;28;20047;-83
2023/05/11 20:16:26;;;;;;;8.95;3.97;;;;;;;;;;5077932;28;20021;-83
2023/05/11 20:18:52;;;;;;;7.90;3.95;;;;;;;;;;5059291;28;20024;-83
2023/05/11 20:21:18;;;;;;;13.82;5.20;;;;;;;;;;5057183;28;20386;-83
2023/05/11 20:23:45;;;;;;;24.85;7.05;;;;;;;;;;5058697;28;20053;-83
2023/05/11 20:26:18;;;;;;;16.15;5.93;;;;;;;;;;5058644;28;20028;-84
2023/05/11 20:28:45;;;;;;;17.63;7.10;;;;;;;;;;5057461;28;20029;-84
2023/05/11 20:31:11;;;;;;;19.08;6.18;;;;;;;;;;5058510;28;20033;-82
2023/05/11 20:33:37;;;;;;;20.00;6.63;;;;;;;;;;5058509;28;20051;-81
2023/05/11 20:36:03;;;;;;;14.05;5.50;;;;;;;;;;5058452;28;20048;-81
2023/05/11 20:38:29;;;;;;;13.02;5.07;;;;;;;;;;5058146;28;20095;-81
2023/05/11 20:40:59;;;;;;;11.07;4.22;;;;;;;;;;5057621;28;20037;-81
2023/05/11 20:43:37;;;;;;;12.57;5.65;;;;;;;;;;5056984;28;20025;-81
2023/05/11 20:46:04;;;;;;;9.43;4.90;;;;;;;;;;5057030;28;20029;-81
2023/05/11 20:48:32;;;;;;;8.57;4.30;;;;;;;;;;5058018;28;20025;-82
2023/05/11 20:50:59;;;;;;;7.70;4.15;;;;;;;;;;5057955;28;20111;-81
2023/05/11 20:53:25;;;;;;;7.50;4.57;;;;;;;;;;5057933;28;20035;-82
2023/05/11 20:55:51;;;;;;;8.10;3.95;;;;;;;;;;5058061;28;20033;-81
2023/05/11 20:58:17;;;;;;;6.28;3.88;;;;;;;;;;5057615;28;20032;-82
2023/05/11 21:00:44;;;;;;;7.45;3.55;;;;;;;;;;5057469;28;20024;-82
2023/05/11 21:03:10;;;;;;;4.88;3.42;;;;;;;;;;5057441;28;20021;-81
2023/05/11 21:05:37;;;;;;;5.80;3.17;;;;;;;;;;5057519;28;20053;-81
2023/05/11 21:08:03;;;;;;;6.40;3.47;;;;;;;;;;5064551;28;20048;-81
2023/05/11 21:10:29;;;;;;;5.45;3.15;;;;;;;;;;5077332;28;20071;-81
2023/05/11 21:12:55;;;;;;;6.88;3.38;;;;;;;;;;5077666;28;20033;-81
2023/05/11 21:15:21;;;;;;;4.03;3.08;;;;;;;;;;5077393;28;20073;-81
2023/05/11 21:17:48;;;;;;;4.53;3.28;;;;;;;;;;5077395;28;20113;-81
2023/05/11 21:20:14;;;;;;;6.25;3.38;;;;;;;;;;5077354;28;20319;-81
2023/05/11 21:22:40;;;;;;;5.78;3.55;;;;;;;;;;5077619;28;20166;-81
2023/05/11 21:25:06;;;;;;;5.85;2.92;;;;;;;;;;5077055;28;20040;-81
2023/05/11 21:27:32;;;;;;;5.07;3.42;;;;;;;;;;5077379;28;20169;-81
2023/05/11 21:29:58;;;;;;;5.43;2.90;;;;;;;;;;5077505;28;20048;-82
2023/05/11 21:32:24;;;;;;;4.32;2.80;;;;;;;;;;5076931;28;20031;-81
2023/05/11 21:34:50;;;;;;;6.03;3.15;;;;;;;;;;5077180;28;20402;-81
2023/05/11 21:37:19;;;;;;;4.20;3.40;;;;;;;;;;5077169;28;20037;-84
2023/05/11 21:39:45;;;;;;;4.78;2.97;;;;;;;;;;5076516;28;20025;-82
2023/05/11 21:42:11;;;;;;;7.65;3.05;;;;;;;;;;5077298;28;20027;-83
2023/05/11 21:44:37;;;;;;;4.18;3.33;;;;;;;;;;5077027;28;20442;-82
2023/05/11 21:47:04;;;;;;;4.65;2.83;;;;;;;;;;5077491;28;20314;-83
2023/05/11 21:49:30;;;;;;;4.93;3.30;;;;;;;;;;5077210;28;20024;-82
2023/05/11 21:51:56;;;;;;;5.50;3.80;;;;;;;;;;5077015;28;20036;-82
2023/05/11 21:54:22;;;;;;;8.43;4.03;;;;;;;;;;5076206;28;20069;-82
2023/05/11 21:56:49;;;;;;;7.45;4.03;;;;;;;;;;5076438;28;20155;-82
2023/05/11 21:59:18;;;;;;;8.07;3.67;;;;;;;;;;5077092;28;20467;-82
2023/05/11 22:01:45;;;;;;;11.23;4.20;;;;;;;;;;5077123;28;20032;-82
2023/05/11 22:04:11;;;;;;;7.50;4.10;;;;;;;;;;5076668;28;20089;-82
2023/05/11 22:06:37;;;;;;;7.22;4.60;;;;;;;;;;5076694;28;20029;-82
2023/05/11 22:09:04;;;;;;;12.52;4.65;;;;;;;;;;5093947;28;20036;-82
2023/05/11 22:11:30;;;;;;;14.32;5.60;;;;;;;;;;5097236;28;20025;-82
2023/05/11 22:13:56;;;;;;;10.57;5.38;;;;;;;;;;5097205;28;20040;-82
2023/05/11 22:16:22;;;;;;;12.50;6.05;;;;;;;;;;5097211;28;20046;-82
2023/05/11 22:18:48;;;;;;;11.73;6.05;;;;;;;;;;5097595;28;20034;-82
2023/05/11 22:21:15;;;;;;;11.75;5.25;;;;;;;;;;5100833;28;20044;-82
2023/05/11 22:23:41;;;;;;;12.93;6.43;;;;;;;;;;5083071;28;20032;-82
2023/05/11 22:26:07;;;;;;;11.07;6.20;;;;;;;;;;5101304;28;20028;-82
2023/05/11 22:28:33;;;;;;;18.65;9.00;;;;;;;;;;5100952;28;20095;-82
2023/05/11 22:30:59;;;;;;;24.40;11.05;;;;;;;;;;5100968;28;20020;-82
2023/05/11 22:33:25;;;;;;;33.95;13.73;;;;;;;;;;5101115;28;20065;-82
2023/05/11 22:35:52;;;;;;;20.88;9.27;;;;;;;;;;5100904;28;20397;-82
2023/05/11 22:38:18;;;;;;;19.73;8.68;;;;;;;;;;5100593;28;20060;-82
2023/05/11 22:40:44;;;;;;;15.82;8.18;;;;;;;;;;5100790;28;20020;-82
2023/05/11 22:43:10;;;;;;;15.10;7.90;;;;;;;;;;5100778;28;20062;-82
2023/05/11 22:45:36;;;;;;;13.77;5.90;;;;;;;;;;5100596;28;20024;-81
2023/05/11 22:48:02;;;;;;;11.55;5.00;;;;;;;;;;5082390;28;20032;-81
2023/05/11 22:50:29;;;;;;;11.98;6.15;;;;;;;;;;5100651;28;20020;-82
2023/05/11 22:52:55;;;;;;;9.27;5.53;;;;;;;;;;5100585;28;20032;-82
2023/05/11 22:55:21;;;;;;;9.38;5.00;;;;;;;;;;5100776;28;20028;-83
2023/05/11 22:57:48;;;;;;;8.32;5.07;;;;;;;;;;5100557;28;20060;-83
2023/05/11 23:00:14;;;;;;;6.85;4.57;;;;;;;;;;5100373;28;20099;-82
2023/05/11 23:02:40;;;;;;;8.63;4.68;;;;;;;;;;5100385;28;20036;-82
2023/05/11 23:05:06;;;;;;;10.43;5.68;;;;;;;;;;5100222;28;20031;-82
2023/05/11 23:07:33;;;;;;;9.63;4.95;;;;;;;;;;5081996;28;20036;-82
2023/05/11 23:09:59;;;;;;;5.40;3.83;;;;;;;;;;5082233;28;20055;-82
2023/05/11 23:12:25;;;;;;;5.00;3.38;;;;;;;;;;5100311;28;20085;-83
2023/05/11 23:14:51;;;;;;;6.03;3.58;;;;;;;;;;5100367;28;20032;-82
2023/05/11 23:17:17;;;;;;;5.35;3.25;;;;;;;;;;5100048;28;20058;-82
2023/05/11 23:19:43;;;;;;;9.05;3.42;;;;;;;;;;5100274;28;20031;-82
2023/05/11 23:22:09;;;;;;;4.50;3.05;;;;;;;;;;5099971;28;20118;-83
2023/05/11 23:24:35;;;;;;;6.93;3.40;;;;;;;;;;5099688;28;20024;-82
2023/05/11 23:27:02;;;;;;;4.28;3.45;;;;;;;;;;5099938;28;20027;-81
2023/05/11 23:29:28;;;;;;;6.32;3.75;;;;;;;;;;5099554;28;20027;-81
2023/05/11 23:31:55;;;;;;;4.32;2.95;;;;;;;;;;5099812;28;20101;-81
2023/05/11 23:34:21;;;;;;;6.95;3.28;;;;;;;;;;5099812;28;20020;-81
2023/05/11 23:36:47;;;;;;;4.32;3.05;;;;;;;;;;5081565;28;20019;-81
2023/05/11 23:39:14;;;;;;;6.20;3.50;;;;;;;;;;5099282;28;20110;-82
2023/05/11 23:41:40;;;;;;;4.53;3.40;;;;;;;;;;5099076;28;20142;-82
2023/05/11 23:44:06;;;;;;;5.50;3.67;;;;;;;;;;5099766;28;20065;-82
2023/05/11 23:46:32;;;;;;;7.18;3.80;;;;;;;;;;5080695;28;20028;-82
2023/05/11 23:48:58;;;;;;;6.78;3.15;;;;;;;;;;5099365;28;20402;-82
2023/05/11 23:51:24;;;;;;;5.07;3.05;;;;;;;;;;5099661;28;20093;-81
2023/05/11 23:53:50;;;;;;;4.15;3.10;;;;;;;;;;5080739;28;20040;-82
2023/05/11 23:56:16;;;;;;;4.85;3.22;;;;;;;;;;5099277;28;20053;-82
2023/05/11 23:58:44;;;;;;;8.48;3.58;;;;;;;;;;5099120;28;20111;-82
